createdAt,value
2019-02-03T00:00:55.365Z,99.99
2019-02-03T00:01:55.385Z,99.99
2019-02-03T00:02:55.406Z,99.99
2019-02-03T00:03:55.428Z,99.99
2019-02-03T00:04:55.450Z,99.99
2019-02-03T00:05:55.473Z,99.99
2019-02-03T00:07:03.061Z,99.99
2019-02-03T00:07:55.515Z,99.99
2019-02-03T00:08:55.542Z,99.99
2019-02-03T00:09:55.569Z,99.99
2019-02-03T00:10:55.580Z,99.99
2019-02-03T00:11:55.602Z,99.99
2019-02-03T00:12:55.620Z,99.99
2019-02-03T00:13:55.641Z,99.99
2019-02-03T00:14:55.669Z,99.99
2019-02-03T00:15:55.685Z,99.99
2019-02-03T00:16:55.715Z,99.99
2019-02-03T00:17:55.731Z,99.99
2019-02-03T00:18:55.755Z,99.99
2019-02-03T00:19:55.773Z,99.99
2019-02-03T00:20:55.793Z,99.99
2019-02-03T00:21:55.824Z,99.99
2019-02-03T00:22:55.844Z,99.99
2019-02-03T00:23:55.856Z,99.99
2019-02-03T00:24:55.880Z,99.99
2019-02-03T00:25:55.903Z,99.99
2019-02-03T00:26:55.928Z,99.99
2019-02-03T00:27:55.971Z,99.99
2019-02-03T00:28:55.967Z,99.99
2019-02-03T00:29:55.994Z,99.99
2019-02-03T00:30:56.007Z,99.99
2019-02-03T00:31:56.032Z,99.99
2019-02-03T00:32:56.056Z,99.99
2019-02-03T00:33:56.075Z,99.99
2019-02-03T00:34:56.094Z,99.99
2019-02-03T00:35:56.115Z,99.99
2019-02-03T00:36:56.138Z,99.99
2019-02-03T00:37:56.262Z,99.99
2019-02-03T00:38:56.194Z,99.99
2019-02-03T00:39:56.239Z,99.99
2019-02-03T00:40:56.225Z,99.99
2019-02-03T00:41:56.390Z,99.99
2019-02-03T00:42:56.268Z,99.99
2019-02-03T00:43:56.296Z,99.99
2019-02-03T00:44:56.311Z,99.99
2019-02-03T00:45:56.335Z,99.99
2019-02-03T00:46:56.353Z,99.99
2019-02-03T00:47:56.374Z,99.99
2019-02-03T00:48:56.396Z,99.99
2019-02-03T00:49:56.425Z,99.99
2019-02-03T00:50:56.439Z,99.99
2019-02-03T00:51:56.459Z,99.99
2019-02-03T00:52:56.483Z,99.99
2019-02-03T00:53:56.502Z,99.99
2019-02-03T00:54:56.532Z,99.99
2019-02-03T00:55:56.567Z,99.99
2019-02-03T00:56:56.618Z,99.99
2019-02-03T00:57:56.591Z,99.99
2019-02-03T00:58:56.609Z,99.99
2019-02-03T00:59:56.630Z,99.99
2019-02-03T01:00:57.061Z,99.99
2019-02-03T01:01:56.676Z,99.99
2019-02-03T01:02:56.698Z,99.99
2019-02-03T01:03:56.967Z,99.99
2019-02-03T01:04:56.743Z,99.99
2019-02-03T01:05:56.773Z,99.99
2019-02-03T01:06:56.782Z,99.99
2019-02-03T01:07:56.805Z,99.99
2019-02-03T01:08:56.833Z,99.99
2019-02-03T01:09:56.845Z,99.99
2019-02-03T01:10:56.868Z,99.99
2019-02-03T01:11:56.888Z,99.99
2019-02-03T01:12:56.912Z,99.99
2019-02-03T01:13:56.951Z,99.99
2019-02-03T01:14:56.952Z,99.99
2019-02-03T01:15:56.974Z,99.99
2019-02-03T01:16:56.995Z,99.99
2019-02-03T01:17:57.023Z,99.99
2019-02-03T01:18:57.067Z,99.99
2019-02-03T01:19:57.059Z,99.99
2019-02-03T01:20:57.086Z,99.99
2019-02-03T01:21:57.610Z,99.99
2019-02-03T01:22:57.151Z,99.99
2019-02-03T01:23:57.150Z,99.99
2019-02-03T01:24:57.173Z,99.99
2019-02-03T01:25:57.189Z,99.99
2019-02-03T01:26:57.211Z,99.99
2019-02-03T01:27:57.233Z,99.99
2019-02-03T01:28:57.264Z,99.99
2019-02-03T01:29:57.279Z,99.99
2019-02-03T01:30:57.304Z,99.99
2019-02-03T01:31:57.321Z,99.99
2019-02-03T01:32:57.339Z,99.99
2019-02-03T01:33:57.361Z,99.99
2019-02-03T01:34:57.383Z,99.99
2019-02-03T01:35:57.403Z,99.99
2019-02-03T01:36:57.424Z,99.99
2019-02-03T01:37:57.451Z,99.99
2019-02-03T01:38:57.470Z,99.99
2019-02-03T01:39:57.489Z,99.99
2019-02-03T01:40:57.510Z,99.99
2019-02-03T01:41:57.535Z,99.99
2019-02-03T01:42:57.556Z,99.99
2019-02-03T01:43:57.604Z,99.99
2019-02-03T01:44:57.660Z,99.99
2019-02-03T01:45:57.622Z,99.99
2019-02-03T01:46:57.642Z,99.99
2019-02-03T01:47:57.664Z,99.99
2019-02-03T01:48:57.683Z,99.99
2019-02-03T01:49:57.710Z,99.99
2019-02-03T01:50:57.735Z,99.99
2019-02-03T01:51:57.753Z,99.99
2019-02-03T01:52:57.772Z,99.99
2019-02-03T01:53:57.794Z,99.99
2019-02-03T01:54:57.825Z,99.99
2019-02-03T01:55:57.838Z,99.99
2019-02-03T01:56:57.856Z,99.99
2019-02-03T01:57:57.881Z,99.99
2019-02-03T01:58:57.907Z,99.99
2019-02-03T01:59:57.921Z,99.99
2019-02-03T02:00:57.942Z,99.99
2019-02-03T02:01:57.967Z,99.99
2019-02-03T02:02:57.987Z,99.99
2019-02-03T02:03:58.011Z,99.99
2019-02-03T02:04:58.032Z,99.99
2019-02-03T02:05:58.057Z,99.99
2019-02-03T02:06:58.074Z,99.99
2019-02-03T02:07:58.096Z,99.99
2019-02-03T02:08:58.115Z,99.99
2019-02-03T02:09:58.140Z,99.99
2019-02-03T02:10:58.159Z,99.99
2019-02-03T02:11:58.188Z,99.99
2019-02-03T02:12:58.331Z,99.99
2019-02-03T02:13:58.226Z,99.99
2019-02-03T02:14:58.254Z,99.99
2019-02-03T02:15:58.273Z,99.99
2019-02-03T02:16:58.289Z,99.99
2019-02-03T02:17:58.313Z,99.99
2019-02-03T02:18:58.334Z,99.99
2019-02-03T02:19:58.356Z,99.99
2019-02-03T02:20:58.377Z,99.99
2019-02-03T02:21:58.399Z,99.99
2019-02-03T02:22:58.425Z,99.99
2019-02-03T02:23:58.439Z,99.99
2019-02-03T02:24:58.466Z,99.99
2019-02-03T02:25:58.488Z,99.99
2019-02-03T02:26:58.511Z,99.99
2019-02-03T02:27:58.524Z,99.99
2019-02-03T02:28:58.551Z,99.99
2019-02-03T02:29:58.569Z,99.99
2019-02-03T02:30:58.589Z,99.99
2019-02-03T02:31:58.631Z,99.99
2019-02-03T02:32:58.648Z,99.99
2019-02-03T02:33:58.659Z,99.99
2019-02-03T02:34:58.676Z,99.99
2019-02-03T02:35:58.699Z,99.99
2019-02-03T02:36:58.811Z,99.99
2019-02-03T02:38:06.491Z,99.99
2019-02-03T02:38:58.789Z,99.99
2019-02-03T02:40:11.829Z,99.99
2019-02-03T02:40:58.806Z,99.99
2019-02-03T02:41:58.827Z,99.99
2019-02-03T02:42:58.849Z,99.99
2019-02-03T02:43:58.867Z,99.99
2019-02-03T02:44:58.897Z,99.99
2019-02-03T02:45:58.909Z,99.99
2019-02-03T02:46:58.939Z,99.99
2019-02-03T02:47:58.963Z,99.99
2019-02-03T02:48:58.973Z,99.99
2019-02-03T02:49:58.996Z,99.99
2019-02-03T02:50:59.042Z,99.99
2019-02-03T02:51:59.045Z,99.99
2019-02-03T02:52:59.061Z,99.99
2019-02-03T02:53:59.171Z,99.99
2019-02-03T02:54:59.102Z,99.99
2019-02-03T02:55:59.125Z,99.99
2019-02-03T02:56:59.152Z,99.99
2019-02-03T02:57:59.170Z,99.99
2019-02-03T02:58:59.185Z,99.99
2019-02-03T02:59:59.214Z,99.99
2019-02-03T03:00:59.226Z,99.99
2019-02-03T03:01:59.276Z,99.99
2019-02-03T03:02:59.271Z,99.99
2019-02-03T03:03:59.289Z,99.99
2019-02-03T03:04:59.314Z,99.99
2019-02-03T03:05:59.334Z,99.99
2019-02-03T03:06:59.354Z,99.99
2019-02-03T03:07:59.376Z,99.99
2019-02-03T03:08:59.424Z,99.99
2019-02-03T03:09:59.416Z,99.99
2019-02-03T03:10:59.440Z,99.99
2019-02-03T03:11:59.465Z,99.99
2019-02-03T03:12:59.481Z,99.99
2019-02-03T03:13:59.508Z,99.99
2019-02-03T03:14:59.553Z,99.99
2019-02-03T03:15:59.541Z,99.99
2019-02-03T03:16:59.565Z,99.99
2019-02-03T03:17:59.587Z,99.99
2019-02-03T03:18:59.612Z,99.99
2019-02-03T03:19:59.635Z,99.99
2019-02-03T03:20:59.656Z,99.99
2019-02-03T03:21:59.668Z,99.99
2019-02-03T03:22:59.698Z,99.99
2019-02-03T03:23:59.722Z,99.99
2019-02-03T03:24:59.736Z,99.99
2019-02-03T03:25:59.754Z,99.99
2019-02-03T03:26:59.775Z,99.99
2019-02-03T03:27:59.797Z,99.99
2019-02-03T03:28:59.818Z,99.99
2019-02-03T03:29:59.840Z,99.99
2019-02-03T03:30:59.863Z,99.99
2019-02-03T03:31:59.885Z,99.99
2019-02-03T03:32:59.916Z,99.99
2019-02-03T03:33:59.922Z,99.99
2019-02-03T03:34:59.972Z,99.99
2019-02-03T03:35:59.964Z,99.99
2019-02-03T03:37:00.006Z,99.99
2019-02-03T03:38:00.009Z,99.99
2019-02-03T03:39:00.048Z,99.99
2019-02-03T03:40:00.052Z,99.99
2019-02-03T03:41:00.095Z,99.99
2019-02-03T03:42:00.096Z,99.99
2019-02-03T03:43:00.109Z,99.99
2019-02-03T03:44:00.130Z,99.99
2019-02-03T03:45:00.345Z,99.99
2019-02-03T03:46:00.178Z,99.99
2019-02-03T03:47:00.194Z,99.99
2019-02-03T03:48:00.216Z,99.99
2019-02-03T03:49:00.234Z,99.99
2019-02-03T03:50:00.495Z,99.99
2019-02-03T03:51:00.279Z,99.99
2019-02-03T03:52:00.304Z,99.99
2019-02-03T03:53:00.319Z,99.99
2019-02-03T03:54:00.341Z,99.99
2019-02-03T03:55:00.416Z,99.99
2019-02-03T03:56:00.382Z,99.99
2019-02-03T03:57:00.410Z,99.99
2019-02-03T03:58:00.422Z,99.99
2019-02-03T03:59:00.443Z,99.99
2019-02-03T04:00:00.562Z,99.99
2019-02-03T04:01:00.487Z,99.99
2019-02-03T04:02:00.508Z,99.99
2019-02-03T04:03:00.529Z,99.99
2019-02-03T04:04:00.553Z,99.99
2019-02-03T04:05:00.570Z,99.99
2019-02-03T04:06:00.592Z,99.99
2019-02-03T04:07:00.616Z,99.99
2019-02-03T04:08:00.646Z,99.99
2019-02-03T04:09:00.654Z,99.99
2019-02-03T04:10:00.681Z,99.99
2019-02-03T04:11:00.694Z,99.99
2019-02-03T04:12:00.715Z,99.99
2019-02-03T04:13:00.752Z,99.99
2019-02-03T04:14:00.759Z,99.99
2019-02-03T04:15:00.777Z,99.99
2019-02-03T04:16:00.799Z,99.99
2019-02-03T04:17:00.828Z,99.99
2019-02-03T04:18:00.843Z,99.99
2019-02-03T04:19:00.872Z,99.99
2019-02-03T04:20:00.888Z,99.99
2019-02-03T04:21:00.906Z,99.99
2019-02-03T04:22:00.924Z,99.99
2019-02-03T04:23:00.947Z,99.99
2019-02-03T04:24:00.968Z,99.99
2019-02-03T04:25:00.989Z,99.99
2019-02-03T04:26:01.013Z,99.99
2019-02-03T04:27:01.029Z,99.99
2019-02-03T04:28:01.051Z,99.99
2019-02-03T04:29:01.073Z,99.99
2019-02-03T04:30:01.117Z,99.99
2019-02-03T04:31:01.122Z,99.99
2019-02-03T04:32:01.132Z,99.99
2019-02-03T04:33:01.161Z,99.99
2019-02-03T04:34:01.182Z,99.99
2019-02-03T04:35:01.223Z,99.99
2019-02-03T04:36:01.217Z,99.99
2019-02-03T04:37:01.237Z,99.99
2019-02-03T04:38:01.267Z,99.99
2019-02-03T04:39:01.280Z,99.99
2019-02-03T04:40:01.301Z,99.99
2019-02-03T04:41:01.321Z,99.99
2019-02-03T04:42:01.344Z,99.99
2019-02-03T04:43:01.367Z,99.99
2019-02-03T04:44:01.383Z,99.99
2019-02-03T04:45:01.418Z,99.99
2019-02-03T04:46:01.436Z,99.99
2019-02-03T04:47:01.454Z,99.99
2019-02-03T04:48:01.468Z,99.99
2019-02-03T04:49:01.492Z,99.99
2019-02-03T04:50:01.559Z,99.99
2019-02-03T04:51:01.540Z,99.99
2019-02-03T04:52:01.553Z,99.99
2019-02-03T04:53:01.573Z,99.99
2019-02-03T04:54:01.595Z,99.99
2019-02-03T04:55:01.637Z,99.99
2019-02-03T04:56:01.635Z,99.99
2019-02-03T04:57:01.655Z,99.99
2019-02-03T04:58:01.675Z,99.99
2019-02-03T04:59:01.696Z,99.99
2019-02-03T05:00:01.719Z,99.99
2019-02-03T05:01:01.741Z,99.99
2019-02-03T05:02:01.763Z,99.99
2019-02-03T05:03:01.779Z,99.99
2019-02-03T05:04:01.803Z,99.99
2019-02-03T05:05:02.136Z,99.99
2019-02-03T05:06:01.852Z,99.99
2019-02-03T05:07:01.872Z,99.99
2019-02-03T05:08:01.885Z,99.99
2019-02-03T05:09:10.606Z,99.99
2019-02-03T05:10:01.929Z,99.99
2019-02-03T05:11:01.949Z,99.99
2019-02-03T05:12:01.973Z,99.99
2019-02-03T05:13:01.988Z,99.99
2019-02-03T05:14:02.012Z,99.99
2019-02-03T05:15:02.033Z,99.99
2019-02-03T05:16:02.053Z,99.99
2019-02-03T05:17:02.084Z,99.99
2019-02-03T05:18:02.114Z,99.99
2019-02-03T05:19:02.117Z,99.99
2019-02-03T05:20:02.150Z,99.99
2019-02-03T05:21:02.161Z,99.99
2019-02-03T05:22:02.184Z,99.99
2019-02-03T05:23:02.208Z,99.99
2019-02-03T05:24:02.235Z,99.99
2019-02-03T05:25:02.255Z,99.99
2019-02-03T05:26:02.270Z,99.99
2019-02-03T05:27:02.288Z,99.99
2019-02-03T05:28:02.306Z,99.99
2019-02-03T05:29:02.360Z,99.99
2019-02-03T05:30:02.349Z,99.99
2019-02-03T05:31:02.370Z,99.99
2019-02-03T05:32:02.389Z,99.99
2019-02-03T05:33:02.414Z,99.99
2019-02-03T05:34:02.437Z,99.99
2019-02-03T05:35:02.457Z,99.99
2019-02-03T05:36:02.475Z,99.99
2019-02-03T05:37:02.501Z,99.99
2019-02-03T05:38:02.524Z,99.99
2019-02-03T05:39:02.543Z,99.99
2019-02-03T05:40:02.564Z,99.99
2019-02-03T05:41:02.595Z,99.99
2019-02-03T05:42:02.609Z,99.99
2019-02-03T05:43:02.623Z,99.99
2019-02-03T05:44:02.651Z,99.99
2019-02-03T05:45:02.666Z,99.99
2019-02-03T05:46:02.699Z,99.99
2019-02-03T05:47:02.718Z,99.99
2019-02-03T05:48:02.731Z,99.99
2019-02-03T05:49:02.756Z,99.99
2019-02-03T05:50:02.780Z,99.99
2019-02-03T05:51:02.795Z,99.99
2019-02-03T05:52:02.826Z,99.99
2019-02-03T05:53:02.838Z,99.99
2019-02-03T05:54:02.860Z,99.99
2019-02-03T05:55:02.883Z,99.99
2019-02-03T05:56:02.906Z,99.99
2019-02-03T05:57:02.923Z,99.99
2019-02-03T05:58:02.948Z,99.99
2019-02-03T05:59:03.046Z,99.99
2019-02-03T06:00:02.986Z,99.99
2019-02-03T06:01:03.008Z,99.99
2019-02-03T06:02:03.030Z,99.99
2019-02-03T06:03:03.050Z,99.99
2019-02-03T06:04:03.072Z,99.99
2019-02-03T06:05:03.109Z,99.99
2019-02-03T06:06:03.118Z,99.99
2019-02-03T06:07:03.158Z,99.99
2019-02-03T06:08:03.154Z,99.99
2019-02-03T06:09:03.178Z,99.99
2019-02-03T06:10:03.207Z,99.99
2019-02-03T06:11:03.228Z,99.99
2019-02-03T06:12:03.241Z,99.99
2019-02-03T06:13:03.271Z,99.99
2019-02-03T06:14:03.297Z,99.99
2019-02-03T06:15:03.307Z,99.99
2019-02-03T06:16:03.329Z,99.99
2019-02-03T06:17:03.354Z,99.99
2019-02-03T06:18:03.369Z,99.99
2019-02-03T06:19:03.391Z,99.99
2019-02-03T06:20:03.413Z,99.99
2019-02-03T06:21:03.434Z,99.99
2019-02-03T06:22:03.454Z,99.99
2019-02-03T06:23:03.507Z,99.99
2019-02-03T06:24:03.509Z,99.99
2019-02-03T06:25:03.536Z,99.99
2019-02-03T06:26:03.540Z,99.99
2019-02-03T06:27:03.561Z,99.99
2019-02-03T06:28:03.583Z,99.99
2019-02-03T06:29:03.605Z,99.99
2019-02-03T06:30:03.624Z,99.99
2019-02-03T06:31:03.653Z,99.99
2019-02-03T06:32:03.668Z,99.99
2019-02-03T06:33:03.689Z,99.99
2019-02-03T06:34:03.721Z,99.99
2019-02-03T06:35:03.734Z,99.99
2019-02-03T06:36:03.759Z,99.99
2019-02-03T06:37:03.775Z,99.99
2019-02-03T06:38:03.801Z,99.99
2019-02-03T06:39:03.819Z,99.99
2019-02-03T06:40:03.842Z,99.99
2019-02-03T06:41:03.860Z,99.99
2019-02-03T06:42:03.887Z,99.99
2019-02-03T06:43:03.899Z,99.99
2019-02-03T06:44:03.923Z,99.99
2019-02-03T06:45:03.944Z,99.99
2019-02-03T06:46:03.967Z,99.99
2019-02-03T06:47:03.988Z,99.99
2019-02-03T06:48:04.010Z,99.99
2019-02-03T06:49:04.030Z,99.99
2019-02-03T06:50:04.048Z,99.99
2019-02-03T06:51:04.069Z,99.99
2019-02-03T06:52:04.090Z,99.99
2019-02-03T06:53:04.120Z,99.99
2019-02-03T06:54:04.136Z,99.99
2019-02-03T06:55:04.157Z,99.99
2019-02-03T06:56:04.177Z,99.99
2019-02-03T06:57:04.199Z,99.99
2019-02-03T06:58:04.228Z,99.99
2019-02-03T06:59:04.240Z,99.99
2019-02-03T07:00:04.263Z,99.99
2019-02-03T07:01:04.284Z,99.99
2019-02-03T07:02:04.305Z,99.99
2019-02-03T07:03:04.326Z,99.99
2019-02-03T07:04:04.345Z,99.99
2019-02-03T07:05:04.388Z,99.99
2019-02-03T07:06:04.388Z,99.99
2019-02-03T07:07:04.411Z,99.99
2019-02-03T07:08:04.432Z,99.99
2019-02-03T07:09:04.453Z,99.99
2019-02-03T07:10:04.474Z,99.99
2019-02-03T07:11:04.495Z,99.99
2019-02-03T07:12:04.523Z,99.99
2019-02-03T07:13:04.535Z,99.99
2019-02-03T07:14:04.557Z,99.99
2019-02-03T07:15:04.580Z,99.99
2019-02-03T07:16:04.604Z,99.99
2019-02-03T07:17:04.623Z,99.99
2019-02-03T07:18:04.644Z,99.99
2019-02-03T07:19:04.664Z,99.99
2019-02-03T07:20:04.684Z,99.99
2019-02-03T07:21:04.713Z,99.99
2019-02-03T07:22:04.737Z,99.99
2019-02-03T07:23:04.749Z,99.99
2019-02-03T07:24:04.770Z,99.99
2019-02-03T07:25:04.792Z,99.99
2019-02-03T07:26:04.829Z,99.99
2019-02-03T07:27:04.832Z,99.99
2019-02-03T07:28:04.854Z,99.99
2019-02-03T07:29:04.877Z,99.99
2019-02-03T07:30:04.896Z,99.99
2019-02-03T07:31:05.030Z,99.99
2019-02-03T07:32:04.940Z,99.99
2019-02-03T07:33:05.081Z,99.99
2019-02-03T07:34:04.989Z,99.99
2019-02-03T07:35:05.005Z,99.99
2019-02-03T07:36:05.025Z,99.99
2019-02-03T07:37:05.077Z,99.99
2019-02-03T07:38:05.075Z,99.99
2019-02-03T07:39:05.089Z,99.99
2019-02-03T07:40:12.138Z,99.99
2019-02-03T07:41:05.130Z,99.99
2019-02-03T07:42:05.151Z,99.99
2019-02-03T07:43:05.174Z,99.99
2019-02-03T07:44:05.195Z,99.99
2019-02-03T07:45:05.232Z,99.99
2019-02-03T07:46:05.236Z,99.99
2019-02-03T07:47:05.263Z,99.99
2019-02-03T07:48:05.284Z,99.99
2019-02-03T07:49:05.303Z,99.99
2019-02-03T07:50:05.323Z,99.99
2019-02-03T07:51:05.344Z,99.99
2019-02-03T07:52:05.363Z,99.99
2019-02-03T07:53:08.425Z,99.99
2019-02-03T07:54:08.657Z,99.99
2019-02-03T07:55:05.429Z,99.99
2019-02-03T07:56:05.451Z,99.99
2019-02-03T07:57:05.471Z,99.99
2019-02-03T07:58:05.493Z,99.99
2019-02-03T07:59:05.518Z,99.99
2019-02-03T08:00:05.543Z,99.99
2019-02-03T08:01:05.552Z,99.99
2019-02-03T08:02:05.581Z,99.99
2019-02-03T08:03:05.595Z,99.99
2019-02-03T08:04:05.617Z,99.99
2019-02-03T08:05:05.637Z,99.99
2019-02-03T08:06:05.670Z,99.99
2019-02-03T08:07:05.681Z,99.99
2019-02-03T08:08:05.707Z,99.99
2019-02-03T08:09:05.726Z,99.99
2019-02-03T08:10:05.747Z,99.99
2019-02-03T08:11:05.771Z,99.99
2019-02-03T08:12:05.790Z,99.99
2019-02-03T08:13:05.809Z,99.99
2019-02-03T08:14:05.829Z,99.99
2019-02-03T08:15:05.850Z,99.99
2019-02-03T08:16:05.874Z,99.99
2019-02-03T08:17:05.895Z,99.99
2019-02-03T08:18:05.919Z,99.99
2019-02-03T08:19:05.935Z,99.99
2019-02-03T08:20:05.963Z,99.99
2019-02-03T08:21:05.980Z,99.99
2019-02-03T08:22:06.002Z,99.99
2019-02-03T08:23:06.023Z,99.99
2019-02-03T08:24:06.045Z,99.99
2019-02-03T08:25:06.073Z,99.99
2019-02-03T08:26:06.094Z,99.99
2019-02-03T08:27:06.108Z,99.99
2019-02-03T08:28:06.130Z,99.99
2019-02-03T08:29:06.155Z,99.99
2019-02-03T08:30:06.172Z,99.99
2019-02-03T08:31:06.194Z,99.99
2019-02-03T08:32:06.216Z,99.99
2019-02-03T08:33:06.240Z,99.99
2019-02-03T08:34:06.265Z,99.99
2019-02-03T08:35:06.281Z,99.99
2019-02-03T08:36:06.301Z,99.99
2019-02-03T08:37:06.325Z,99.99
2019-02-03T08:38:06.351Z,99.99
2019-02-03T08:39:06.367Z,99.99
2019-02-03T08:40:06.386Z,99.99
2019-02-03T08:41:06.408Z,99.99
2019-02-03T08:42:06.432Z,99.99
2019-02-03T08:43:06.454Z,99.99
2019-02-03T08:44:06.475Z,99.99
2019-02-03T08:45:06.495Z,99.99
2019-02-03T08:46:06.523Z,99.99
2019-02-03T08:47:06.544Z,99.99
2019-02-03T08:48:06.563Z,99.99
2019-02-03T08:49:06.583Z,99.99
2019-02-03T08:50:06.605Z,99.99
2019-02-03T08:51:06.626Z,99.99
2019-02-03T08:52:06.647Z,99.99
2019-02-03T08:53:06.668Z,99.99
2019-02-03T08:54:06.692Z,99.99
2019-02-03T08:55:06.716Z,99.99
2019-02-03T08:56:06.733Z,99.99
2019-02-03T08:57:06.755Z,99.99
2019-02-03T08:58:06.776Z,99.99
2019-02-03T08:59:06.797Z,99.99
2019-02-03T09:00:06.821Z,99.99
2019-02-03T09:01:06.845Z,99.99
2019-02-03T09:02:06.866Z,99.99
2019-02-03T09:03:08.773Z,99.99
2019-02-03T09:04:06.909Z,99.99
2019-02-03T09:05:06.928Z,99.99
2019-02-03T09:06:06.951Z,99.99
2019-02-03T09:07:06.972Z,99.99
2019-02-03T09:08:06.996Z,99.99
2019-02-03T09:09:07.022Z,99.99
2019-02-03T09:10:07.041Z,99.99
2019-02-03T09:11:07.062Z,99.99
2019-02-03T09:12:07.081Z,99.99
2019-02-03T09:13:07.104Z,99.99
2019-02-03T09:14:07.127Z,99.99
2019-02-03T09:15:07.148Z,99.99
2019-02-03T09:16:07.170Z,99.99
2019-02-03T09:17:07.194Z,99.99
2019-02-03T09:18:07.219Z,99.99
2019-02-03T09:19:07.246Z,99.99
2019-02-03T09:20:07.266Z,99.36
2019-02-03T09:21:07.290Z,96.69
2019-02-03T09:22:07.315Z,96.03
2019-02-03T09:23:07.336Z,95.22
2019-02-03T09:24:07.440Z,94.08
2019-02-03T09:25:07.388Z,93.51
2019-02-03T09:26:08.639Z,92.36
2019-02-03T09:27:07.440Z,91.89
2019-02-03T09:28:07.473Z,91.42
2019-02-03T09:29:07.497Z,91.51
2019-02-03T09:30:07.524Z,91.47
2019-02-03T09:31:10.172Z,91.75
2019-02-03T09:32:07.579Z,91.80
2019-02-03T09:33:07.608Z,91.56
2019-02-03T09:34:07.637Z,88.93
2019-02-03T09:35:07.671Z,86.75
2019-02-03T09:36:07.695Z,86.08
2019-02-03T09:37:07.722Z,85.99
2019-02-03T09:38:07.751Z,86.13
2019-02-03T09:39:07.787Z,86.46
2019-02-03T09:40:07.809Z,85.41
2019-02-03T09:41:07.839Z,84.69
2019-02-03T09:42:07.869Z,83.65
2019-02-03T09:43:07.899Z,84.03
2019-02-03T09:44:07.938Z,84.56
2019-02-03T09:45:07.968Z,84.65
2019-02-03T09:46:07.996Z,85.94
2019-02-03T09:47:08.021Z,85.51
2019-02-03T09:48:08.060Z,85.51
2019-02-03T09:49:08.089Z,84.65
2019-02-03T09:50:08.117Z,83.70
2019-02-03T09:51:08.145Z,84.03
2019-02-03T09:52:08.176Z,83.45
2019-02-03T09:53:08.208Z,81.88
2019-02-03T09:54:08.248Z,81.93
2019-02-03T09:55:08.273Z,82.03
2019-02-03T09:56:08.306Z,82.21
2019-02-03T09:57:08.341Z,82.12
2019-02-03T09:58:12.001Z,82.12
2019-02-03T09:59:08.401Z,83.13
2019-02-03T10:00:08.430Z,84.75
2019-02-03T10:01:08.463Z,83.80
2019-02-03T10:02:08.498Z,84.56
2019-02-03T10:03:08.528Z,83.51
2019-02-03T10:04:08.569Z,83.80
2019-02-03T10:05:08.604Z,83.90
2019-02-03T10:06:08.627Z,85.80
2019-02-03T10:07:08.666Z,86.76
2019-02-03T10:08:08.692Z,86.85
2019-02-03T10:09:08.733Z,86.42
2019-02-03T10:10:08.758Z,85.56
2019-02-03T10:11:12.121Z,85.28
2019-02-03T10:12:08.823Z,85.03
2019-02-03T10:13:08.863Z,83.32
2019-02-03T10:14:08.888Z,83.03
2019-02-03T10:15:08.921Z,81.84
2019-02-03T10:16:08.954Z,81.07
2019-02-03T10:17:08.991Z,80.46
2019-02-03T10:18:09.020Z,81.23
2019-02-03T10:19:09.052Z,81.17
2019-02-03T10:20:09.086Z,79.59
2019-02-03T10:21:09.117Z,79.64
2019-02-03T10:22:09.153Z,78.98
2019-02-03T10:23:09.190Z,78.69
2019-02-03T10:24:09.219Z,78.12
2019-02-03T10:25:09.253Z,79.27
2019-02-03T10:26:09.285Z,80.36
2019-02-03T10:27:09.324Z,81.17
2019-02-03T10:28:09.351Z,81.07
2019-02-03T10:29:09.391Z,80.50
2019-02-03T10:30:09.512Z,80.02
2019-02-03T10:31:09.450Z,79.46
2019-02-03T10:32:09.489Z,80.18
2019-02-03T10:33:09.524Z,82.42
2019-02-03T10:34:09.552Z,85.47
2019-02-03T10:35:09.592Z,87.71
2019-02-03T10:36:09.621Z,91.09
2019-02-03T10:37:09.660Z,94.56
2019-02-03T10:38:09.685Z,97.31
2019-02-03T10:39:09.719Z,97.41
2019-02-03T10:40:09.749Z,99.06
2019-02-03T10:41:09.782Z,99.63
2019-02-03T10:42:09.821Z,99.99
2019-02-03T10:43:09.845Z,99.99
2019-02-03T10:44:09.874Z,99.99
2019-02-03T10:45:09.911Z,99.99
2019-02-03T10:46:09.937Z,99.99
2019-02-03T10:47:09.967Z,99.40
2019-02-03T10:48:10.002Z,95.32
2019-02-03T10:49:10.031Z,90.66
2019-02-03T10:50:10.061Z,86.13
2019-02-03T10:51:10.086Z,84.70
2019-02-03T10:52:10.115Z,85.37
2019-02-03T10:53:10.145Z,85.80
2019-02-03T10:54:10.172Z,86.71
2019-02-03T10:55:10.202Z,88.61
2019-02-03T10:56:10.231Z,89.71
2019-02-03T10:57:10.261Z,90.75
2019-02-03T10:58:10.294Z,91.33
2019-02-03T10:59:10.325Z,92.18
2019-02-03T11:00:17.961Z,92.80
2019-02-03T11:01:10.375Z,93.18
2019-02-03T11:02:10.410Z,94.70
2019-02-03T11:03:10.435Z,94.84
2019-02-03T11:04:10.479Z,94.46
2019-02-03T11:05:10.490Z,95.31
2019-02-03T11:06:10.518Z,95.51
2019-02-03T11:07:10.545Z,96.45
2019-02-03T11:08:10.578Z,96.26
2019-02-03T11:09:10.604Z,96.03
2019-02-03T11:10:10.632Z,95.36
2019-02-03T11:11:10.659Z,94.60
2019-02-03T11:12:10.685Z,95.65
2019-02-03T11:13:10.719Z,94.93
2019-02-03T11:14:10.748Z,96.26
2019-02-03T11:15:10.770Z,96.08
2019-02-03T11:16:10.795Z,96.45
2019-02-03T11:17:10.826Z,96.45
2019-02-03T11:18:10.853Z,95.79
2019-02-03T11:19:10.879Z,96.36
2019-02-03T11:20:10.904Z,97.60
2019-02-03T11:21:10.934Z,97.12
2019-02-03T11:22:10.959Z,96.50
2019-02-03T11:23:10.988Z,93.51
2019-02-03T11:24:11.013Z,91.52
2019-02-03T11:25:11.042Z,90.23
2019-02-03T11:26:11.066Z,89.56
2019-02-03T11:27:11.096Z,90.04
2019-02-03T11:28:11.121Z,89.85
2019-02-03T11:29:11.151Z,90.47
2019-02-03T11:30:11.176Z,92.56
2019-02-03T11:31:11.212Z,92.85
2019-02-03T11:32:11.232Z,92.71
2019-02-03T11:33:11.260Z,93.27
2019-02-03T11:34:11.286Z,93.80
2019-02-03T11:35:11.321Z,94.74
2019-02-03T11:36:11.338Z,95.51
2019-02-03T11:37:11.367Z,95.51
2019-02-03T11:38:11.392Z,96.08
2019-02-03T11:39:11.419Z,96.26
2019-02-03T11:40:14.073Z,96.36
2019-02-03T11:41:11.473Z,97.02
2019-02-03T11:42:11.500Z,97.55
2019-02-03T11:43:11.525Z,98.49
2019-02-03T11:44:11.559Z,98.97
2019-02-03T11:45:11.586Z,99.54
2019-02-03T11:46:11.607Z,99.35
2019-02-03T11:47:11.638Z,99.99
2019-02-03T11:48:11.658Z,99.99
2019-02-03T11:49:11.683Z,99.99
2019-02-03T11:50:11.712Z,99.99
2019-02-03T11:51:11.735Z,99.99
2019-02-03T11:52:11.764Z,99.99
2019-02-03T11:53:11.788Z,99.30
2019-02-03T11:54:11.819Z,99.21
2019-02-03T11:55:11.841Z,99.68
2019-02-03T11:56:11.873Z,99.06
2019-02-03T11:57:11.894Z,98.78
2019-02-03T11:58:11.922Z,99.99
2019-02-03T11:59:11.942Z,99.99
2019-02-03T12:00:11.970Z,99.99
2019-02-03T12:01:12.002Z,99.99
2019-02-03T12:02:12.021Z,99.99
2019-02-03T12:03:12.045Z,99.99
2019-02-03T12:04:12.069Z,99.99
2019-02-03T12:05:12.097Z,99.99
2019-02-03T12:06:12.127Z,99.99
2019-02-03T12:07:12.149Z,99.99
2019-02-03T12:08:12.171Z,99.99
2019-02-03T12:09:12.206Z,99.99
2019-02-03T12:10:12.222Z,99.99
2019-02-03T12:11:12.246Z,99.99
2019-02-03T12:12:12.278Z,99.99
2019-02-03T12:13:12.297Z,99.99
2019-02-03T12:14:12.322Z,99.99
2019-02-03T12:15:12.349Z,99.99
2019-02-03T12:16:12.375Z,99.99
2019-02-03T12:17:12.485Z,99.99
2019-02-03T12:18:12.425Z,99.40
2019-02-03T12:19:12.448Z,99.02
2019-02-03T12:20:12.475Z,99.07
2019-02-03T12:21:12.495Z,98.45
2019-02-03T12:22:12.530Z,98.64
2019-02-03T12:23:12.748Z,98.26
2019-02-03T12:24:12.571Z,98.92
2019-02-03T12:25:12.598Z,99.49
2019-02-03T12:26:12.622Z,99.99
2019-02-03T12:27:12.647Z,99.99
2019-02-03T12:28:12.674Z,99.99
2019-02-03T12:29:12.698Z,99.99
2019-02-03T12:30:12.723Z,99.99
2019-02-03T12:31:12.745Z,99.99
2019-02-03T12:32:12.784Z,99.99
2019-02-03T12:33:12.804Z,99.99
2019-02-03T12:34:12.820Z,99.99
2019-02-03T12:35:12.847Z,99.99
2019-02-03T12:36:12.873Z,99.99
2019-02-03T12:37:12.902Z,99.99
2019-02-03T12:38:12.920Z,99.99
2019-02-03T12:39:12.948Z,99.99
2019-02-03T12:40:12.978Z,99.99
2019-02-03T12:41:12.996Z,99.21
2019-02-03T12:42:13.672Z,98.83
2019-02-03T12:43:13.044Z,98.26
2019-02-03T12:44:13.072Z,99.49
2019-02-03T12:45:13.095Z,99.97
2019-02-03T12:46:13.118Z,99.40
2019-02-03T12:47:13.148Z,99.99
2019-02-03T12:48:13.176Z,99.16
2019-02-03T12:49:13.195Z,97.97
2019-02-03T12:50:13.221Z,98.26
2019-02-03T12:51:13.245Z,99.30
2019-02-03T12:52:13.276Z,99.40
2019-02-03T12:53:13.304Z,99.99